1918 NOT_NAMED (1918188N13146)


IBTrACS version v04r00. Visit IBTrACS website for data access.
Please direct all questions to the IBTrACS Q and A forum

Storm track - Intensity - Wind Radii - Intensity Data - Source Data - All data

Summary Information

Storm ID 1918188N13146
Start Jul 6 22Z
End Jul 11 22Z
ATCF IDs
Track status Best track data.

Storm track plot

Map of storm track

Intensity plots

No Intensity information for this storm


Radial wind information

No radial wind information for this storm


Position and Intensity Table

BASIN ISO_TIME_________ NATURE LAT LON
degrees north degrees east
WP 1918-07-06 22:00:00 NR 13.00 146.00
WP 1918-07-07 00:00:00 NR 13.06 145.64
WP 03:00:00 NR 13.14 145.11
WP 06:00:00 NR 13.22 144.60
WP 09:00:00 NR 13.28 144.14
WP 10:00:00 NR 13.30 144.00
WP 12:00:00 NR 13.33 143.74
WP 15:00:00 NR 13.38 143.35
WP 18:00:00 NR 13.44 142.93
WP 21:00:00 NR 13.55 142.41
WP 22:00:00 NR 13.60 142.20
WP 1918-07-08 00:00:00 NR 13.73 141.69
WP 03:00:00 NR 13.97 140.80
WP 06:00:00 NR 14.24 139.85
WP 09:00:00 NR 14.51 138.90
WP 10:00:00 NR 14.60 138.60
WP 12:00:00 NR 14.75 138.07
WP 15:00:00 NR 14.98 137.31
WP 18:00:00 NR 15.20 136.57
WP 21:00:00 NR 15.43 135.85
WP 22:00:00 NR 15.50 135.60
WP 1918-07-09 00:00:00 NR 15.64 135.08
WP 03:00:00 NR 15.85 134.29
WP 06:00:00 NR 16.08 133.51
WP 09:00:00 NR 16.31 132.75
WP 10:00:00 NR 16.40 132.50
WP 12:00:00 NR 16.57 131.99
WP 15:00:00 NR 16.85 131.24
WP 18:00:00 NR 17.15 130.56
WP 21:00:00 NR 17.48 129.97
WP 22:00:00 NR 17.60 129.80
WP 1918-07-10 00:00:00 NR 17.83 129.49
WP 03:00:00 NR 18.21 129.13
WP 06:00:00 NR 18.61 128.85
WP 09:00:00 NR 19.05 128.65
WP 10:00:00 NR 19.20 128.60
WP 12:00:00 NR 19.51 128.47
WP 15:00:00 NR 20.00 128.33
WP 18:00:00 NR 20.51 128.24
WP 21:00:00 NR 21.03 128.20
WP 22:00:00 NR 21.20 128.20
WP 1918-07-11 00:00:00 NR 21.53 128.19
WP 03:00:00 NR 22.03 128.21
WP 06:00:00 NR 22.53 128.27
WP 09:00:00 NR 23.03 128.36
WP 10:00:00 NR 23.20 128.40
WP 12:00:00 NR 23.53 128.48
WP 15:00:00 NR 24.03 128.62
WP 18:00:00 NR 24.53 128.78
WP 21:00:00 NR 25.03 128.94
WP 22:00:00 NR 25.20 129.00

Source Information

Agency Information
USA
TOKYO
CMA
HKO
NEWDELHI
REUNION
BOM
NADI
WELLINGTON
DS824
TD9636 cons_worldwide_trop_cyclone_18710101-19891231-003:Line=5701
TD9635
NEUMANN
MLC

All available IBTrACS Data

SEASON BASIN SUBBASIN ISO_TIME_________ NATURE LAT LON DIST2LAND LANDFALL IFLAG USA SSHS TD9636 LAT TD9636 LON TD9636 STAGE STORM SPEED STORM DIR
Year degrees north degrees east km km 1 degrees north degrees east kts degrees
1918 WP MM 1918-07-06 22:00:00 NR 13.00 146.00 1693 1693 __________O___ -1 13.00 146.00 4 11 279
1918 WP MM 1918-07-07 00:00:00 NR 13.06 145.64 1706 1706 __________P___ -1 13.06 145.64 4 11 279
1918 WP MM 03:00:00 NR 13.14 145.11 1711 1711 __________P___ -1 13.14 145.11 4 10 279
1918 WP MM 06:00:00 NR 13.22 144.60 1728 1728 __________P___ -1 13.22 144.60 4 10 278
1918 WP MM 09:00:00 NR 13.28 144.14 1747 1747 __________P___ -1 13.28 144.14 4 9 278
1918 WP MM 10:00:00 NR 13.30 144.00 1749 1749 __________O___ -1 13.30 144.00 4 8 277
1918 WP MM 12:00:00 NR 13.33 143.74 1754 1754 __________P___ -1 13.33 143.74 4 8 277
1918 WP MM 15:00:00 NR 13.38 143.35 1772 1758 __________P___ -1 13.38 143.35 4 8 278
1918 WP MM 18:00:00 NR 13.44 142.93 1758 1754 __________P___ -1 13.44 142.93 4 9 281
1918 WP MM 21:00:00 NR 13.55 142.41 1764 1756 __________P___ -1 13.55 142.41 4 11 283
1918 WP MM 22:00:00 NR 13.60 142.20 1756 1745 __________O___ -1 13.60 142.20 4 14 284
1918 WP MM 1918-07-08 00:00:00 NR 13.73 141.69 1745 1663 __________P___ -1 13.73 141.69 4 17 285
1918 WP MM 03:00:00 NR 13.97 140.80 1663 1572 __________P___ -1 13.97 140.80 4 19 286
1918 WP MM 06:00:00 NR 14.24 139.85 1572 1472 __________P___ -1 14.24 139.85 4 19 286
1918 WP MM 09:00:00 NR 14.51 138.90 1472 1442 __________P___ -1 14.51 138.90 4 19 287
1918 WP MM 10:00:00 NR 14.60 138.60 1442 1391 __________O___ -1 14.60 138.60 4 17 287
1918 WP MM 12:00:00 NR 14.75 138.07 1393 1313 __________P___ -1 14.75 138.07 4 16 287
1918 WP MM 15:00:00 NR 14.98 137.31 1313 1245 __________P___ -1 14.98 137.31 4 15 287
1918 WP MM 18:00:00 NR 15.20 136.57 1245 1168 __________P___ -1 15.20 136.57 4 15 287
1918 WP MM 21:00:00 NR 15.43 135.85 1168 1151 __________P___ -1 15.43 135.85 4 15 288
1918 WP MM 22:00:00 NR 15.50 135.60 1151 1104 __________O___ -1 15.50 135.60 4 15 286
1918 WP MM 1918-07-09 00:00:00 NR 15.64 135.08 1104 1031 __________P___ -1 15.64 135.08 4 16 286
1918 WP MM 03:00:00 NR 15.85 134.29 1035 966 __________P___ -1 15.85 134.29 4 16 286
1918 WP MM 06:00:00 NR 16.08 133.51 966 901 __________P___ -1 16.08 133.51 4 16 287
1918 WP MM 09:00:00 NR 16.31 132.75 901 888 __________P___ -1 16.31 132.75 4 15 289
1918 WP MM 10:00:00 NR 16.40 132.50 888 856 __________O___ -1 16.40 132.50 4 15 290
1918 WP MM 12:00:00 NR 16.57 131.99 856 798 __________P___ -1 16.57 131.99 4 15 290
1918 WP MM 15:00:00 NR 16.85 131.24 798 754 __________P___ -1 16.85 131.24 4 15 293
1918 WP MM 18:00:00 NR 17.15 130.56 760 716 __________P___ -1 17.15 130.56 4 14 297
1918 WP MM 21:00:00 NR 17.48 129.97 722 711 __________P___ -1 17.48 129.97 4 13 302
1918 WP MM 22:00:00 NR 17.60 129.80 711 698 __________O___ -1 17.60 129.80 4 12 308
1918 WP MM 1918-07-10 00:00:00 NR 17.83 129.49 698 695 __________P___ -1 17.83 129.49 4 11 313
1918 WP MM 03:00:00 NR 18.21 129.13 695 695 __________P___ -1 18.21 129.13 4 10 322
1918 WP MM 06:00:00 NR 18.61 128.85 696 675 __________P___ -1 18.61 128.85 4 10 332
1918 WP MM 09:00:00 NR 19.05 128.65 677 667 __________P___ -1 19.05 128.65 4 10 338
1918 WP MM 10:00:00 NR 19.20 128.60 669 660 __________O___ -1 19.20 128.60 4 10 340
1918 WP MM 12:00:00 NR 19.51 128.47 663 652 __________P___ -1 19.51 128.47 4 10 342
1918 WP MM 15:00:00 NR 20.00 128.33 654 654 __________P___ -1 20.00 128.33 4 10 348
1918 WP MM 18:00:00 NR 20.51 128.24 661 661 __________P___ -1 20.51 128.24 4 10 353
1918 WP MM 21:00:00 NR 21.03 128.20 682 687 __________P___ -1 21.03 128.20 4 10 357
1918 WP MM 22:00:00 NR 21.20 128.20 692 692 __________O___ -1 21.20 128.20 4 10 358
1918 WP MM 1918-07-11 00:00:00 NR 21.53 128.19 707 701 __________P___ -1 21.53 128.19 4 10 2
1918 WP MM 03:00:00 NR 22.03 128.21 701 683 __________P___ -1 22.03 128.21 4 10 5
1918 WP MM 06:00:00 NR 22.53 128.27 689 675 __________P___ -1 22.53 128.27 4 10 8
1918 WP MM 09:00:00 NR 23.03 128.36 682 676 __________P___ -1 23.03 128.36 4 10 10
1918 WP MM 10:00:00 NR 23.20 128.40 676 671 __________O___ -1 23.20 128.40 4 10 13
1918 WP MM 12:00:00 NR 23.53 128.48 679 671 __________P___ -1 23.53 128.48 4 10 14
1918 WP MM 15:00:00 NR 24.03 128.62 676 674 __________P___ -1 24.03 128.62 4 10 15
1918 WP MM 18:00:00 NR 24.53 128.78 688 686 __________P___ -1 24.53 128.78 4 10 16
1918 WP MM 21:00:00 NR 25.03 128.94 692 668 __________P___ -1 25.03 128.94 4 10 17
1918 WP MM 22:00:00 NR 25.20 129.00 668 __________O___ -1 25.20 129.00 4 10 20